sensor_id;sensor_type;location;lat;lon;timestamp;pressure;altitude;pressure_sealevel;temperature
45850;BMP180;10739;52.198;20.908;2023-06-22T00:00:59;100385.00;;;23.80
45850;BMP180;10739;52.198;20.908;2023-06-22T00:03:26;100387.00;;;23.80
45850;BMP180;10739;52.198;20.908;2023-06-22T00:05:53;100388.00;;;23.80
45850;BMP180;10739;52.198;20.908;2023-06-22T00:08:20;100389.00;;;23.80
45850;BMP180;10739;52.198;20.908;2023-06-22T00:10:46;100402.00;;;23.70
45850;BMP180;10739;52.198;20.908;2023-06-22T00:13:13;100394.00;;;23.60
45850;BMP180;10739;52.198;20.908;2023-06-22T00:15:41;100387.00;;;23.60
45850;BMP180;10739;52.198;20.908;2023-06-22T00:18:10;100385.00;;;23.60
45850;BMP180;10739;52.198;20.908;2023-06-22T00:20:36;100393.00;;;23.50
45850;BMP180;10739;52.198;20.908;2023-06-22T00:23:07;100386.00;;;23.60
45850;BMP180;10739;52.198;20.908;2023-06-22T00:25:40;100380.00;;;23.50
45850;BMP180;10739;52.198;20.908;2023-06-22T00:28:07;100381.00;;;23.40
45850;BMP180;10739;52.198;20.908;2023-06-22T00:30:34;100380.00;;;23.40
45850;BMP180;10739;52.198;20.908;2023-06-22T00:33:01;100376.00;;;23.40
45850;BMP180;10739;52.198;20.908;2023-06-22T00:35:28;100380.00;;;23.40
45850;BMP180;10739;52.198;20.908;2023-06-22T00:38:00;100376.00;;;23.50
45850;BMP180;10739;52.198;20.908;2023-06-22T00:40:35;100381.00;;;23.50
45850;BMP180;10739;52.198;20.908;2023-06-22T00:43:02;100382.00;;;23.60
45850;BMP180;10739;52.198;20.908;2023-06-22T00:45:29;100371.00;;;23.50
45850;BMP180;10739;52.198;20.908;2023-06-22T00:47:59;100374.00;;;23.40
45850;BMP180;10739;52.198;20.908;2023-06-22T00:50:29;100371.00;;;23.40
45850;BMP180;10739;52.198;20.908;2023-06-22T00:53:03;100374.00;;;23.50
45850;BMP180;10739;52.198;20.908;2023-06-22T00:55:37;100368.00;;;23.40
45850;BMP180;10739;52.198;20.908;2023-06-22T00:58:07;100372.00;;;23.40
45850;BMP180;10739;52.198;20.908;2023-06-22T01:00:37;100376.00;;;23.30
45850;BMP180;10739;52.198;20.908;2023-06-22T01:03:04;100367.00;;;23.30
45850;BMP180;10739;52.198;20.908;2023-06-22T01:05:35;100353.00;;;23.30
45850;BMP180;10739;52.198;20.908;2023-06-22T01:08:06;100356.00;;;23.30
45850;BMP180;10739;52.198;20.908;2023-06-22T01:10:43;100343.00;;;23.30
45850;BMP180;10739;52.198;20.908;2023-06-22T01:13:27;100346.00;;;23.30
45850;BMP180;10739;52.198;20.908;2023-06-22T01:18:43;100347.00;;;23.30
45850;BMP180;10739;52.198;20.908;2023-06-22T01:21:16;100346.00;;;23.20
45850;BMP180;10739;52.198;20.908;2023-06-22T01:29:26;100325.00;;;23.10
45850;BMP180;10739;52.198;20.908;2023-06-22T01:31:56;100330.00;;;23.10
45850;BMP180;10739;52.198;20.908;2023-06-22T01:34:24;100335.00;;;23.10
45850;BMP180;10739;52.198;20.908;2023-06-22T01:36:52;100332.00;;;23.10
45850;BMP180;10739;52.198;20.908;2023-06-22T01:39:19;100331.00;;;23.50
45850;BMP180;10739;52.198;20.908;2023-06-22T01:41:48;100334.00;;;23.30
45850;BMP180;10739;52.198;20.908;2023-06-22T01:44:15;100335.00;;;23.30
45850;BMP180;10739;52.198;20.908;2023-06-22T01:46:42;100341.00;;;23.30
45850;BMP180;10739;52.198;20.908;2023-06-22T01:49:08;100346.00;;;23.30
45850;BMP180;10739;52.198;20.908;2023-06-22T01:51:35;100348.00;;;23.30
45850;BMP180;10739;52.198;20.908;2023-06-22T01:54:01;100361.00;;;23.30
45850;BMP180;10739;52.198;20.908;2023-06-22T01:56:28;100365.00;;;23.30
45850;BMP180;10739;52.198;20.908;2023-06-22T01:59:20;100369.00;;;23.10
45850;BMP180;10739;52.198;20.908;2023-06-22T02:01:58;100373.00;;;23.10
45850;BMP180;10739;52.198;20.908;2023-06-22T02:04:34;100377.00;;;23.10
45850;BMP180;10739;52.198;20.908;2023-06-22T02:07:09;100378.00;;;23.00
45850;BMP180;10739;52.198;20.908;2023-06-22T02:09:41;100382.00;;;23.00
45850;BMP180;10739;52.198;20.908;2023-06-22T02:12:12;100387.00;;;22.90
45850;BMP180;10739;52.198;20.908;2023-06-22T02:14:40;100387.00;;;22.80
45850;BMP180;10739;52.198;20.908;2023-06-22T02:17:09;100390.00;;;22.90
45850;BMP180;10739;52.198;20.908;2023-06-22T02:19:41;100390.00;;;22.90
45850;BMP180;10739;52.198;20.908;2023-06-22T02:22:07;100386.00;;;22.70
45850;BMP180;10739;52.198;20.908;2023-06-22T02:24:33;100393.00;;;22.90
45850;BMP180;10739;52.198;20.908;2023-06-22T02:27:01;100398.00;;;22.70
45850;BMP180;10739;52.198;20.908;2023-06-22T02:29:28;100399.00;;;22.70
45850;BMP180;10739;52.198;20.908;2023-06-22T02:31:55;100399.00;;;22.70
45850;BMP180;10739;52.198;20.908;2023-06-22T02:34:22;100410.00;;;22.80
45850;BMP180;10739;52.198;20.908;2023-06-22T02:36:49;100416.00;;;22.70
45850;BMP180;10739;52.198;20.908;2023-06-22T02:39:23;100423.00;;;22.60
45850;BMP180;10739;52.198;20.908;2023-06-22T02:41:51;100424.00;;;22.40
45850;BMP180;10739;52.198;20.908;2023-06-22T02:44:18;100423.00;;;22.50
45850;BMP180;10739;52.198;20.908;2023-06-22T02:46:46;100424.00;;;22.60
45850;BMP180;10739;52.198;20.908;2023-06-22T02:49:13;100428.00;;;22.70
45850;BMP180;10739;52.198;20.908;2023-06-22T02:51:44;100425.00;;;22.70
45850;BMP180;10739;52.198;20.908;2023-06-22T02:54:10;100430.00;;;22.30
45850;BMP180;10739;52.198;20.908;2023-06-22T02:56:36;100439.00;;;22.40
45850;BMP180;10739;52.198;20.908;2023-06-22T02:59:03;100437.00;;;22.70
45850;BMP180;10739;52.198;20.908;2023-06-22T03:01:30;100437.00;;;22.70
45850;BMP180;10739;52.198;20.908;2023-06-22T03:04:12;100439.00;;;22.80
45850;BMP180;10739;52.198;20.908;2023-06-22T03:06:38;100446.00;;;22.70
45850;BMP180;10739;52.198;20.908;2023-06-22T03:09:07;100453.00;;;22.90
45850;BMP180;10739;52.198;20.908;2023-06-22T03:11:34;100455.00;;;22.90
45850;BMP180;10739;52.198;20.908;2023-06-22T03:14:02;100455.00;;;23.10
45850;BMP180;10739;52.198;20.908;2023-06-22T03:16:29;100459.00;;;23.10
45850;BMP180;10739;52.198;20.908;2023-06-22T03:18:55;100460.00;;;23.10
45850;BMP180;10739;52.198;20.908;2023-06-22T03:21:28;100462.00;;;23.20
45850;BMP180;10739;52.198;20.908;2023-06-22T03:23:55;100453.00;;;23.30
45850;BMP180;10739;52.198;20.908;2023-06-22T03:26:21;100452.00;;;23.30
45850;BMP180;10739;52.198;20.908;2023-06-22T03:28:47;100445.00;;;23.30
45850;BMP180;10739;52.198;20.908;2023-06-22T03:31:13;100441.00;;;23.40
45850;BMP180;10739;52.198;20.908;2023-06-22T03:33:39;100449.00;;;23.40
45850;BMP180;10739;52.198;20.908;2023-06-22T03:36:05;100453.00;;;23.40
45850;BMP180;10739;52.198;20.908;2023-06-22T03:38:32;100454.00;;;23.40
45850;BMP180;10739;52.198;20.908;2023-06-22T03:40:59;100461.00;;;23.40
45850;BMP180;10739;52.198;20.908;2023-06-22T03:43:25;100461.00;;;23.50
45850;BMP180;10739;52.198;20.908;2023-06-22T03:45:51;100470.00;;;23.60
45850;BMP180;10739;52.198;20.908;2023-06-22T03:48:17;100474.00;;;23.40
45850;BMP180;10739;52.198;20.908;2023-06-22T03:50:43;100483.00;;;23.10
45850;BMP180;10739;52.198;20.908;2023-06-22T03:53:10;100477.00;;;23.40
45850;BMP180;10739;52.198;20.908;2023-06-22T03:55:36;100475.00;;;23.50
45850;BMP180;10739;52.198;20.908;2023-06-22T03:58:03;100483.00;;;23.60
45850;BMP180;10739;52.198;20.908;2023-06-22T04:00:32;100480.00;;;23.70
45850;BMP180;10739;52.198;20.908;2023-06-22T04:02:58;100484.00;;;23.70
45850;BMP180;10739;52.198;20.908;2023-06-22T04:05:24;100491.00;;;23.70
45850;BMP180;10739;52.198;20.908;2023-06-22T04:07:51;100485.00;;;23.60
45850;BMP180;10739;52.198;20.908;2023-06-22T04:10:17;100487.00;;;23.70
45850;BMP180;10739;52.198;20.908;2023-06-22T04:12:43;100492.00;;;23.80
45850;BMP180;10739;52.198;20.908;2023-06-22T04:15:10;100495.00;;;23.90
45850;BMP180;10739;52.198;20.908;2023-06-22T04:17:37;100493.00;;;24.10
45850;BMP180;10739;52.198;20.908;2023-06-22T04:20:05;100496.00;;;24.00
45850;BMP180;10739;52.198;20.908;2023-06-22T04:22:31;100491.00;;;24.10
45850;BMP180;10739;52.198;20.908;2023-06-22T04:24:57;100498.00;;;24.10
45850;BMP180;10739;52.198;20.908;2023-06-22T04:27:23;100495.00;;;24.00
45850;BMP180;10739;52.198;20.908;2023-06-22T04:29:50;100504.00;;;23.80
45850;BMP180;10739;52.198;20.908;2023-06-22T04:32:17;100507.00;;;23.60
45850;BMP180;10739;52.198;20.908;2023-06-22T04:34:44;100508.00;;;24.10
45850;BMP180;10739;52.198;20.908;2023-06-22T04:37:10;100504.00;;;24.00
45850;BMP180;10739;52.198;20.908;2023-06-22T04:39:42;100503.00;;;23.80
45850;BMP180;10739;52.198;20.908;2023-06-22T04:42:08;100504.00;;;24.00
45850;BMP180;10739;52.198;20.908;2023-06-22T04:44:35;100504.00;;;24.00
45850;BMP180;10739;52.198;20.908;2023-06-22T04:47:02;100499.00;;;23.90
45850;BMP180;10739;52.198;20.908;2023-06-22T04:49:36;100500.00;;;23.80
45850;BMP180;10739;52.198;20.908;2023-06-22T04:52:09;100497.00;;;24.10
45850;BMP180;10739;52.198;20.908;2023-06-22T04:54:37;100494.00;;;24.10
45850;BMP180;10739;52.198;20.908;2023-06-22T04:57:07;100492.00;;;24.50
45850;BMP180;10739;52.198;20.908;2023-06-22T04:59:37;100495.00;;;24.30
45850;BMP180;10739;52.198;20.908;2023-06-22T05:02:05;100497.00;;;24.40
45850;BMP180;10739;52.198;20.908;2023-06-22T05:04:32;100502.00;;;24.50
45850;BMP180;10739;52.198;20.908;2023-06-22T05:07:01;100491.00;;;24.40
45850;BMP180;10739;52.198;20.908;2023-06-22T05:09:28;100492.00;;;24.50
45850;BMP180;10739;52.198;20.908;2023-06-22T05:11:55;100489.00;;;24.30
45850;BMP180;10739;52.198;20.908;2023-06-22T05:14:23;100492.00;;;24.50
45850;BMP180;10739;52.198;20.908;2023-06-22T05:16:49;100497.00;;;24.70
45850;BMP180;10739;52.198;20.908;2023-06-22T05:19:18;100502.00;;;24.70
45850;BMP180;10739;52.198;20.908;2023-06-22T05:21:44;100501.00;;;24.90
45850;BMP180;10739;52.198;20.908;2023-06-22T05:24:10;100504.00;;;24.90
45850;BMP180;10739;52.198;20.908;2023-06-22T05:26:36;100497.00;;;24.90
45850;BMP180;10739;52.198;20.908;2023-06-22T05:29:03;100502.00;;;25.00
45850;BMP180;10739;52.198;20.908;2023-06-22T05:31:29;100503.00;;;24.90
45850;BMP180;10739;52.198;20.908;2023-06-22T05:33:56;100514.00;;;24.80
45850;BMP180;10739;52.198;20.908;2023-06-22T05:36:23;100528.00;;;24.80
45850;BMP180;10739;52.198;20.908;2023-06-22T05:38:53;100523.00;;;25.00
45850;BMP180;10739;52.198;20.908;2023-06-22T05:41:19;100525.00;;;25.20
45850;BMP180;10739;52.198;20.908;2023-06-22T05:43:46;100529.00;;;25.10
45850;BMP180;10739;52.198;20.908;2023-06-22T05:46:12;100536.00;;;25.10
45850;BMP180;10739;52.198;20.908;2023-06-22T05:48:38;100529.00;;;25.20
45850;BMP180;10739;52.198;20.908;2023-06-22T05:51:04;100532.00;;;25.00
45850;BMP180;10739;52.198;20.908;2023-06-22T05:53:30;100529.00;;;24.90
45850;BMP180;10739;52.198;20.908;2023-06-22T05:55:57;100532.00;;;25.00
45850;BMP180;10739;52.198;20.908;2023-06-22T05:58:23;100526.00;;;25.20
45850;BMP180;10739;52.198;20.908;2023-06-22T06:00:49;100528.00;;;25.40
45850;BMP180;10739;52.198;20.908;2023-06-22T06:03:15;100532.00;;;25.50
45850;BMP180;10739;52.198;20.908;2023-06-22T06:05:43;100533.00;;;25.40
45850;BMP180;10739;52.198;20.908;2023-06-22T06:08:11;100536.00;;;25.20
45850;BMP180;10739;52.198;20.908;2023-06-22T06:10:38;100554.00;;;25.10
45850;BMP180;10739;52.198;20.908;2023-06-22T06:13:05;100547.00;;;25.20
45850;BMP180;10739;52.198;20.908;2023-06-22T06:15:32;100554.00;;;25.40
45850;BMP180;10739;52.198;20.908;2023-06-22T06:17:58;100553.00;;;25.40
45850;BMP180;10739;52.198;20.908;2023-06-22T06:20:26;100557.00;;;25.00
45850;BMP180;10739;52.198;20.908;2023-06-22T06:22:55;100554.00;;;24.90
45850;BMP180;10739;52.198;20.908;2023-06-22T06:25:22;100550.00;;;25.20
45850;BMP180;10739;52.198;20.908;2023-06-22T06:27:51;100554.00;;;25.60
45850;BMP180;10739;52.198;20.908;2023-06-22T06:30:19;100550.00;;;25.80
45850;BMP180;10739;52.198;20.908;2023-06-22T06:32:46;100543.00;;;25.90
45850;BMP180;10739;52.198;20.908;2023-06-22T06:35:14;100543.00;;;25.70
45850;BMP180;10739;52.198;20.908;2023-06-22T06:37:49;100552.00;;;25.80
45850;BMP180;10739;52.198;20.908;2023-06-22T06:40:18;100553.00;;;25.70
45850;BMP180;10739;52.198;20.908;2023-06-22T06:42:48;100551.00;;;26.20
45850;BMP180;10739;52.198;20.908;2023-06-22T06:45:23;100547.00;;;25.90
45850;BMP180;10739;52.198;20.908;2023-06-22T06:47:51;100552.00;;;26.20
45850;BMP180;10739;52.198;20.908;2023-06-22T06:50:19;100547.00;;;26.30
45850;BMP180;10739;52.198;20.908;2023-06-22T06:52:45;100547.00;;;26.50
45850;BMP180;10739;52.198;20.908;2023-06-22T06:55:11;100548.00;;;26.40
45850;BMP180;10739;52.198;20.908;2023-06-22T06:57:39;100540.00;;;26.70
45850;BMP180;10739;52.198;20.908;2023-06-22T07:00:08;100545.00;;;26.70
45850;BMP180;10739;52.198;20.908;2023-06-22T07:02:43;100542.00;;;27.10
45850;BMP180;10739;52.198;20.908;2023-06-22T07:05:12;100545.00;;;27.00
45850;BMP180;10739;52.198;20.908;2023-06-22T07:07:39;100539.00;;;27.20
45850;BMP180;10739;52.198;20.908;2023-06-22T07:10:06;100540.00;;;26.90
45850;BMP180;10739;52.198;20.908;2023-06-22T07:12:33;100546.00;;;26.90
45850;BMP180;10739;52.198;20.908;2023-06-22T07:15:08;100553.00;;;26.90
45850;BMP180;10739;52.198;20.908;2023-06-22T07:17:36;100559.00;;;26.40
45850;BMP180;10739;52.198;20.908;2023-06-22T07:20:03;100555.00;;;26.00
45850;BMP180;10739;52.198;20.908;2023-06-22T07:22:34;100563.00;;;26.40
45850;BMP180;10739;52.198;20.908;2023-06-22T07:25:00;100558.00;;;26.70
45850;BMP180;10739;52.198;20.908;2023-06-22T07:27:27;100562.00;;;26.90
45850;BMP180;10739;52.198;20.908;2023-06-22T07:29:54;100567.00;;;26.90
45850;BMP180;10739;52.198;20.908;2023-06-22T07:32:21;100563.00;;;26.90
45850;BMP180;10739;52.198;20.908;2023-06-22T07:34:47;100563.00;;;27.20
45850;BMP180;10739;52.198;20.908;2023-06-22T07:37:13;100564.00;;;27.20
45850;BMP180;10739;52.198;20.908;2023-06-22T07:39:40;100570.00;;;27.40
45850;BMP180;10739;52.198;20.908;2023-06-22T07:42:07;100561.00;;;27.40
45850;BMP180;10739;52.198;20.908;2023-06-22T07:44:35;100565.00;;;27.90
45850;BMP180;10739;52.198;20.908;2023-06-22T07:47:01;100574.00;;;28.00
45850;BMP180;10739;52.198;20.908;2023-06-22T07:49:28;100567.00;;;28.30
45850;BMP180;10739;52.198;20.908;2023-06-22T07:51:55;100568.00;;;27.80
45850;BMP180;10739;52.198;20.908;2023-06-22T07:54:21;100576.00;;;28.40
45850;BMP180;10739;52.198;20.908;2023-06-22T07:56:48;100570.00;;;28.20
45850;BMP180;10739;52.198;20.908;2023-06-22T07:59:14;100577.00;;;28.10
45850;BMP180;10739;52.198;20.908;2023-06-22T08:01:40;100581.00;;;27.60
45850;BMP180;10739;52.198;20.908;2023-06-22T08:04:07;100570.00;;;28.20
45850;BMP180;10739;52.198;20.908;2023-06-22T08:06:33;100566.00;;;27.40
45850;BMP180;10739;52.198;20.908;2023-06-22T08:08:59;100577.00;;;27.80
45850;BMP180;10739;52.198;20.908;2023-06-22T08:11:26;100568.00;;;27.90
45850;BMP180;10739;52.198;20.908;2023-06-22T08:13:52;100566.00;;;28.30
45850;BMP180;10739;52.198;20.908;2023-06-22T08:16:18;100569.00;;;28.50
45850;BMP180;10739;52.198;20.908;2023-06-22T08:18:44;100574.00;;;27.70
45850;BMP180;10739;52.198;20.908;2023-06-22T08:21:11;100564.00;;;28.00
45850;BMP180;10739;52.198;20.908;2023-06-22T08:23:37;100566.00;;;28.20
45850;BMP180;10739;52.198;20.908;2023-06-22T08:26:03;100564.00;;;27.90
45850;BMP180;10739;52.198;20.908;2023-06-22T08:28:29;100567.00;;;28.40
45850;BMP180;10739;52.198;20.908;2023-06-22T08:30:55;100564.00;;;28.20
45850;BMP180;10739;52.198;20.908;2023-06-22T08:33:22;100566.00;;;28.60
45850;BMP180;10739;52.198;20.908;2023-06-22T08:35:55;100566.00;;;28.20
45850;BMP180;10739;52.198;20.908;2023-06-22T08:38:21;100565.00;;;28.40
45850;BMP180;10739;52.198;20.908;2023-06-22T08:40:47;100569.00;;;28.90
45850;BMP180;10739;52.198;20.908;2023-06-22T08:43:14;100567.00;;;29.20
45850;BMP180;10739;52.198;20.908;2023-06-22T08:45:40;100573.00;;;29.30
45850;BMP180;10739;52.198;20.908;2023-06-22T08:48:07;100575.00;;;28.90
45850;BMP180;10739;52.198;20.908;2023-06-22T08:50:33;100574.00;;;28.80
45850;BMP180;10739;52.198;20.908;2023-06-22T08:53:00;100574.00;;;29.30
45850;BMP180;10739;52.198;20.908;2023-06-22T08:55:26;100580.00;;;29.60
45850;BMP180;10739;52.198;20.908;2023-06-22T08:57:52;100583.00;;;29.60
45850;BMP180;10739;52.198;20.908;2023-06-22T09:00:19;100581.00;;;29.90
45850;BMP180;10739;52.198;20.908;2023-06-22T09:02:49;100583.00;;;30.00
45850;BMP180;10739;52.198;20.908;2023-06-22T09:05:15;100588.00;;;30.40
45850;BMP180;10739;52.198;20.908;2023-06-22T09:07:42;100589.00;;;30.50
45850;BMP180;10739;52.198;20.908;2023-06-22T09:10:09;100592.00;;;30.70
45850;BMP180;10739;52.198;20.908;2023-06-22T09:12:36;100587.00;;;30.90
45850;BMP180;10739;52.198;20.908;2023-06-22T09:15:04;100590.00;;;31.30
45850;BMP180;10739;52.198;20.908;2023-06-22T09:17:33;100590.00;;;31.20
45850;BMP180;10739;52.198;20.908;2023-06-22T09:20:00;100588.00;;;31.40
45850;BMP180;10739;52.198;20.908;2023-06-22T09:22:27;100573.00;;;31.60
45850;BMP180;10739;52.198;20.908;2023-06-22T09:24:55;100570.00;;;31.60
45850;BMP180;10739;52.198;20.908;2023-06-22T09:27:22;100565.00;;;32.00
45850;BMP180;10739;52.198;20.908;2023-06-22T09:29:49;100564.00;;;31.40
45850;BMP180;10739;52.198;20.908;2023-06-22T09:32:16;100569.00;;;31.50
45850;BMP180;10739;52.198;20.908;2023-06-22T09:34:42;100573.00;;;31.30
45850;BMP180;10739;52.198;20.908;2023-06-22T09:37:09;100573.00;;;30.60
45850;BMP180;10739;52.198;20.908;2023-06-22T09:39:35;100572.00;;;30.90
45850;BMP180;10739;52.198;20.908;2023-06-22T09:42:03;100576.00;;;31.10
45850;BMP180;10739;52.198;20.908;2023-06-22T09:44:31;100574.00;;;30.80
45850;BMP180;10739;52.198;20.908;2023-06-22T09:46:57;100576.00;;;31.30
45850;BMP180;10739;52.198;20.908;2023-06-22T09:49:24;100576.00;;;31.60
45850;BMP180;10739;52.198;20.908;2023-06-22T09:51:50;100568.00;;;32.20
45850;BMP180;10739;52.198;20.908;2023-06-22T09:54:17;100573.00;;;32.00
45850;BMP180;10739;52.198;20.908;2023-06-22T09:56:43;100564.00;;;32.00
45850;BMP180;10739;52.198;20.908;2023-06-22T09:59:10;100572.00;;;32.30
45850;BMP180;10739;52.198;20.908;2023-06-22T10:01:36;100567.00;;;32.20
45850;BMP180;10739;52.198;20.908;2023-06-22T10:04:02;100567.00;;;33.00
45850;BMP180;10739;52.198;20.908;2023-06-22T10:06:29;100575.00;;;33.50
45850;BMP180;10739;52.198;20.908;2023-06-22T10:08:55;100573.00;;;32.10
45850;BMP180;10739;52.198;20.908;2023-06-22T10:11:22;100570.00;;;31.50
45850;BMP180;10739;52.198;20.908;2023-06-22T10:14:23;100578.00;;;31.60
45850;BMP180;10739;52.198;20.908;2023-06-22T10:16:52;100589.00;;;32.50
45850;BMP180;10739;52.198;20.908;2023-06-22T10:19:19;100573.00;;;32.20
45850;BMP180;10739;52.198;20.908;2023-06-22T10:21:45;100572.00;;;32.30
45850;BMP180;10739;52.198;20.908;2023-06-22T10:24:11;100582.00;;;32.60
45850;BMP180;10739;52.198;20.908;2023-06-22T10:26:38;100574.00;;;32.90
45850;BMP180;10739;52.198;20.908;2023-06-22T10:29:05;100567.00;;;33.30
45850;BMP180;10739;52.198;20.908;2023-06-22T10:31:35;100573.00;;;32.40
45850;BMP180;10739;52.198;20.908;2023-06-22T10:34:01;100557.00;;;32.20
45850;BMP180;10739;52.198;20.908;2023-06-22T10:36:27;100567.00;;;32.90
45850;BMP180;10739;52.198;20.908;2023-06-22T10:38:53;100561.00;;;33.40
45850;BMP180;10739;52.198;20.908;2023-06-22T10:41:21;100561.00;;;33.80
45850;BMP180;10739;52.198;20.908;2023-06-22T10:43:47;100556.00;;;34.20
45850;BMP180;10739;52.198;20.908;2023-06-22T10:46:14;100555.00;;;34.50
45850;BMP180;10739;52.198;20.908;2023-06-22T10:48:40;100562.00;;;34.50
45850;BMP180;10739;52.198;20.908;2023-06-22T10:51:06;100551.00;;;33.40
45850;BMP180;10739;52.198;20.908;2023-06-22T10:53:32;100558.00;;;33.30
45850;BMP180;10739;52.198;20.908;2023-06-22T10:55:59;100556.00;;;33.90
45850;BMP180;10739;52.198;20.908;2023-06-22T10:58:25;100562.00;;;33.80
45850;BMP180;10739;52.198;20.908;2023-06-22T11:00:52;100545.00;;;33.70
45850;BMP180;10739;52.198;20.908;2023-06-22T11:03:19;100549.00;;;33.30
45850;BMP180;10739;52.198;20.908;2023-06-22T11:05:46;100550.00;;;34.10
45850;BMP180;10739;52.198;20.908;2023-06-22T11:08:14;100552.00;;;34.80
45850;BMP180;10739;52.198;20.908;2023-06-22T11:10:40;100549.00;;;35.30
45850;BMP180;10739;52.198;20.908;2023-06-22T11:13:07;100551.00;;;34.00
45850;BMP180;10739;52.198;20.908;2023-06-22T11:15:36;100542.00;;;34.90
45850;BMP180;10739;52.198;20.908;2023-06-22T11:18:02;100542.00;;;35.80
45850;BMP180;10739;52.198;20.908;2023-06-22T11:20:31;100545.00;;;36.40
45850;BMP180;10739;52.198;20.908;2023-06-22T11:23:00;100540.00;;;36.10
45850;BMP180;10739;52.198;20.908;2023-06-22T11:25:27;100539.00;;;35.90
45850;BMP180;10739;52.198;20.908;2023-06-22T11:27:54;100539.00;;;36.00
45850;BMP180;10739;52.198;20.908;2023-06-22T11:30:20;100545.00;;;35.70
45850;BMP180;10739;52.198;20.908;2023-06-22T11:32:47;100536.00;;;35.50
45850;BMP180;10739;52.198;20.908;2023-06-22T11:35:13;100549.00;;;35.30
45850;BMP180;10739;52.198;20.908;2023-06-22T11:37:40;100551.00;;;35.60
45850;BMP180;10739;52.198;20.908;2023-06-22T11:40:06;100544.00;;;36.10
45850;BMP180;10739;52.198;20.908;2023-06-22T11:42:35;100549.00;;;35.50
45850;BMP180;10739;52.198;20.908;2023-06-22T11:45:02;100556.00;;;35.30
45850;BMP180;10739;52.198;20.908;2023-06-22T11:47:30;100546.00;;;35.10
45850;BMP180;10739;52.198;20.908;2023-06-22T11:49:57;100545.00;;;35.70
45850;BMP180;10739;52.198;20.908;2023-06-22T11:52:23;100548.00;;;36.20
45850;BMP180;10739;52.198;20.908;2023-06-22T11:54:49;100547.00;;;35.90
45850;BMP180;10739;52.198;20.908;2023-06-22T11:57:16;100546.00;;;35.70
45850;BMP180;10739;52.198;20.908;2023-06-22T11:59:42;100548.00;;;35.10
45850;BMP180;10739;52.198;20.908;2023-06-22T12:02:08;100557.00;;;35.30
45850;BMP180;10739;52.198;20.908;2023-06-22T12:04:35;100540.00;;;35.60
45850;BMP180;10739;52.198;20.908;2023-06-22T12:07:01;100540.00;;;35.80
45850;BMP180;10739;52.198;20.908;2023-06-22T12:09:28;100531.00;;;35.50
45850;BMP180;10739;52.198;20.908;2023-06-22T12:11:54;100536.00;;;35.80
45850;BMP180;10739;52.198;20.908;2023-06-22T12:14:21;100534.00;;;36.80
45850;BMP180;10739;52.198;20.908;2023-06-22T12:16:47;100525.00;;;37.00
45850;BMP180;10739;52.198;20.908;2023-06-22T12:19:14;100532.00;;;37.70
45850;BMP180;10739;52.198;20.908;2023-06-22T12:21:40;100534.00;;;37.60
45850;BMP180;10739;52.198;20.908;2023-06-22T12:24:06;100526.00;;;37.10
45850;BMP180;10739;52.198;20.908;2023-06-22T12:26:32;100531.00;;;37.60
45850;BMP180;10739;52.198;20.908;2023-06-22T12:28:58;100536.00;;;37.20
45850;BMP180;10739;52.198;20.908;2023-06-22T12:31:25;100527.00;;;37.20
45850;BMP180;10739;52.198;20.908;2023-06-22T12:33:51;100522.00;;;36.20
45850;BMP180;10739;52.198;20.908;2023-06-22T12:36:17;100515.00;;;35.60
45850;BMP180;10739;52.198;20.908;2023-06-22T12:38:43;100524.00;;;36.50
45850;BMP180;10739;52.198;20.908;2023-06-22T12:41:09;100522.00;;;35.90
45850;BMP180;10739;52.198;20.908;2023-06-22T12:43:36;100525.00;;;36.80
45850;BMP180;10739;52.198;20.908;2023-06-22T12:46:02;100519.00;;;37.10
45850;BMP180;10739;52.198;20.908;2023-06-22T12:48:28;100514.00;;;37.10
45850;BMP180;10739;52.198;20.908;2023-06-22T12:50:54;100517.00;;;37.80
45850;BMP180;10739;52.198;20.908;2023-06-22T12:53:20;100531.00;;;36.90
45850;BMP180;10739;52.198;20.908;2023-06-22T12:55:48;100533.00;;;37.00
45850;BMP180;10739;52.198;20.908;2023-06-22T12:58:15;100528.00;;;36.30
45850;BMP180;10739;52.198;20.908;2023-06-22T13:00:40;100527.00;;;35.90
45850;BMP180;10739;52.198;20.908;2023-06-22T13:03:06;100526.00;;;36.80
45850;BMP180;10739;52.198;20.908;2023-06-22T13:05:32;100521.00;;;37.90
45850;BMP180;10739;52.198;20.908;2023-06-22T13:08:00;100513.00;;;37.80
45850;BMP180;10739;52.198;20.908;2023-06-22T13:10:26;100521.00;;;38.50
45850;BMP180;10739;52.198;20.908;2023-06-22T13:12:52;100518.00;;;38.40
45850;BMP180;10739;52.198;20.908;2023-06-22T13:15:29;100524.00;;;37.60
45850;BMP180;10739;52.198;20.908;2023-06-22T13:17:55;100525.00;;;37.00
45850;BMP180;10739;52.198;20.908;2023-06-22T13:20:22;100529.00;;;37.30
45850;BMP180;10739;52.198;20.908;2023-06-22T13:22:48;100520.00;;;37.60
45850;BMP180;10739;52.198;20.908;2023-06-22T13:25:14;100522.00;;;37.60
45850;BMP180;10739;52.198;20.908;2023-06-22T13:27:44;100526.00;;;38.00
45850;BMP180;10739;52.198;20.908;2023-06-22T13:30:11;100519.00;;;37.40
45850;BMP180;10739;52.198;20.908;2023-06-22T13:32:38;100520.00;;;37.10
45850;BMP180;10739;52.198;20.908;2023-06-22T13:35:09;100522.00;;;36.90
45850;BMP180;10739;52.198;20.908;2023-06-22T13:37:35;100524.00;;;36.70
45850;BMP180;10739;52.198;20.908;2023-06-22T13:40:02;100535.00;;;36.00
45850;BMP180;10739;52.198;20.908;2023-06-22T13:42:31;100526.00;;;36.60
45850;BMP180;10739;52.198;20.908;2023-06-22T13:44:57;100531.00;;;37.20
45850;BMP180;10739;52.198;20.908;2023-06-22T13:47:24;100527.00;;;36.80
45850;BMP180;10739;52.198;20.908;2023-06-22T13:49:50;100524.00;;;36.60
45850;BMP180;10739;52.198;20.908;2023-06-22T13:52:16;100519.00;;;37.10
45850;BMP180;10739;52.198;20.908;2023-06-22T13:54:42;100522.00;;;37.40